Time;durP1;ratioP1;P1;durP2;ratioP2;P2;SDS_P1;SDS_P2;PMS_P1;PMS_P2;Temp;Humidity;BMP_temperature;BMP_pressure;BME280_temperature;BME280_humidity;BME280_pressure;Samples;Min_cycle;Max_cycle;Signal;HPM_P1;HPM_P2
2021/11/03 00:01:04;;;;;;;0.52;0.50;;;13.20;70.40;;;;;;5091368;28;20032;-91
2021/11/03 00:03:32;;;;;;;;;;;12.90;70.50;;;;;;5091240;28;20073;-92
2021/11/03 00:05:58;;;;;;;0.68;0.50;;;;;;;;;;5087213;28;19916;-89
2021/11/03 00:08:26;;;;;;;0.32;0.32;;;12.90;71.40;;;;;;5090194;28;20477;-89
2021/11/03 00:10:52;;;;;;;0.40;0.40;;;;;;;;;;5091390;28;20039;-91
2021/11/03 00:13:20;;;;;;;0.43;0.43;;;;;;;;;;5091682;28;20061;-89
2021/11/03 00:15:46;;;;;;;0.65;0.52;;;;;;;;;;5060203;28;20370;-90
2021/11/03 00:18:12;;;;;;;0.57;0.52;;;;;;;;;;5087296;28;20062;-90
2021/11/03 00:20:38;;;;;;;0.60;0.60;;;;;;;;;;5091376;28;20469;-90
2021/11/03 00:23:05;;;;;;;2.53;0.80;;;;;;;;;;5091705;28;20538;-90
2021/11/03 00:25:31;;;;;;;0.35;0.35;;;;;;;;;;5090257;28;20045;-90
2021/11/03 00:27:57;;;;;;;0.30;0.30;;;;;;;;;;5091977;28;20073;-88
2021/11/03 00:30:23;;;;;;;0.43;0.43;;;;;;;;;;5091009;28;20031;-89
2021/11/03 00:32:49;;;;;;;0.40;0.40;;;;;;;;;;5091670;28;20435;-90
2021/11/03 00:35:15;;;;;;;0.57;0.57;;;12.60;69.80;;;;;;5090936;28;20404;-90
2021/11/03 00:37:41;;;;;;;5.32;0.40;;;;;;;;;;5090541;28;20103;-89
2021/11/03 00:40:08;;;;;;;0.47;0.40;;;;;;;;;;5075249;28;20381;-89
2021/11/03 00:42:34;;;;;;;0.32;0.32;;;;;;;;;;5087026;28;20537;-90
2021/11/03 00:45:00;;;;;;;0.30;0.30;;;;;;;;;;5090623;28;20039;-89
2021/11/03 00:47:26;;;;;;;0.40;0.40;;;;;;;;;;5088352;28;20032;-90
2021/11/03 00:49:52;;;;;;;0.80;0.50;;;;;;;;;;5098635;28;20137;-89
2021/11/03 00:52:18;;;;;;;0.40;0.40;;;;;;;;;;5090556;28;20558;-89
2021/11/03 00:54:44;;;;;;;0.43;0.35;;;;;;;;;;5078152;28;20492;-89
2021/11/03 00:57:10;;;;;;;3.50;0.40;;;;;;;;;;5087661;28;20028;-91
2021/11/03 00:59:36;;;;;;;0.35;0.35;;;;;;;;;;5091919;28;20035;-90
2021/11/03 01:02:02;;;;;;;0.50;0.50;;;;;;;;;;5091757;28;20035;-91
2021/11/03 01:04:28;;;;;;;0.50;0.50;;;;;;;;;;5090867;28;20086;-90
2021/11/03 01:06:54;;;;;;;0.30;0.30;;;;;;;;;;5091897;28;20408;-89
2021/11/03 01:09:20;;;;;;;0.40;0.40;;;;;;;;;;5091719;28;20020;-92
2021/11/03 01:11:47;;;;;;;0.40;0.40;;;;;;;;;;5091391;28;20035;-90
2021/11/03 01:14:13;;;;;;;0.40;0.40;;;;;;;;;;5091704;28;20526;-92
2021/11/03 01:16:39;;;;;;;0.30;0.30;;;;;;;;;;5091643;28;20024;-90
2021/11/03 01:19:06;;;;;;;0.30;0.30;;;11.50;76.70;;;;;;5092436;28;20552;-91
2021/11/03 01:21:33;;;;;;;0.40;0.40;;;;;;;;;;5084355;28;20028;-90
2021/11/03 01:23:59;;;;;;;0.40;0.40;;;;;;;;;;5078119;28;20209;-90
2021/11/03 01:26:25;;;;;;;0.32;0.32;;;;;;;;;;5094465;28;20120;-91
2021/11/03 01:28:51;;;;;;;0.40;0.40;;;;;;;;;;5094741;28;20102;-89
2021/11/03 01:31:17;;;;;;;0.30;0.30;;;;;;;;;;5094966;28;20544;-92
2021/11/03 01:33:43;;;;;;;0.30;0.30;;;;;;;;;;5095247;28;20025;-90
2021/11/03 01:36:10;;;;;;;1.17;0.30;;;11.00;79.20;;;;;;5095268;28;20028;-91
2021/11/03 01:38:36;;;;;;;0.40;0.40;;;;;;;;;;5093787;28;20035;-90
2021/11/03 01:41:02;;;;;;;0.40;0.40;;;;;;;;;;5087163;28;20040;-89
2021/11/03 01:43:48;;;;;;;3.38;1.45;;;11.40;80.60;;;;;;5076740;28;20025;-90
2021/11/03 01:46:15;;;;;;;0.47;0.40;;;11.60;77.50;;;;;;5091356;28;20397;-91
2021/11/03 01:48:41;;;;;;;0.30;0.30;;;;;;;;;;5082914;28;20027;-89
2021/11/03 01:51:07;;;;;;;0.30;0.30;;;;;;;;;;5075729;28;20078;-91
2021/11/03 01:53:34;;;;;;;0.40;0.40;;;11.60;75.30;;;;;;5085485;28;20051;-89
2021/11/03 01:56:05;;;;;;;0.30;0.30;;;11.70;76.80;;;;;;5094437;28;20055;-89
2021/11/03 01:58:38;;;;;;;0.30;0.30;;;11.60;76.30;;;;;;5092496;28;20024;-91
2021/11/03 02:01:04;;;;;;;0.40;0.40;;;11.50;92.50;;;;;;5076414;28;20032;-88
2021/11/03 02:03:30;;;;;;;0.43;0.40;;;;;;;;;;5085570;28;20055;-90
2021/11/03 02:06:21;;;;;;;0.30;0.30;;;11.60;74.80;;;;;;5094015;28;20528;-88
2021/11/03 02:08:49;;;;;;;0.20;0.20;;;11.50;75.20;;;;;;5094492;28;20078;-90
2021/11/03 02:11:16;;;;;;;0.40;0.40;;;;;;;;;;5088733;28;20016;-91
2021/11/03 02:13:42;;;;;;;0.30;0.30;;;;;;;;;;5078633;28;20027;-90
2021/11/03 02:16:10;;;;;;;0.30;0.30;;;;;;;;;;5077258;28;20030;-89
2021/11/03 02:18:36;;;;;;;0.40;0.40;;;;;;;;;;5093171;28;20028;-90
2021/11/03 02:21:03;;;;;;;0.40;0.40;;;12.00;76.10;;;;;;5093449;28;20401;-90
2021/11/03 02:23:48;;;;;;;0.52;0.50;;;11.90;76.00;;;;;;5092885;28;20036;-90
2021/11/03 02:26:25;;;;;;;1.02;0.75;;;;;;;;;;5092454;28;20081;-89
2021/11/03 02:28:51;;;;;;;0.40;0.40;;;;;;;;;;5092807;28;20488;-90
2021/11/03 02:31:36;;;;;;;0.40;0.40;;;11.70;77.10;;;;;;5075455;28;20025;-91
2021/11/03 02:34:08;;;;;;;0.60;0.50;;;11.70;76.20;;;;;;5059412;28;20040;-90
2021/11/03 02:36:36;;;;;;;1.05;0.50;;;;;;;;;;5070796;28;20033;-88
2021/11/03 02:39:05;;;;;;;0.65;0.60;;;;;;;;;;5088016;28;20077;-89
2021/11/03 02:41:35;;;;;;;0.50;0.50;;;11.70;76.00;;;;;;5092433;28;20210;-88
2021/11/03 02:44:09;;;;;;;0.30;0.30;;;11.80;76.10;;;;;;5091844;28;20054;-88
2021/11/03 02:46:35;;;;;;;0.30;0.30;;;;;;;;;;5091969;28;20039;-89
2021/11/03 02:49:01;;;;;;;0.40;0.40;;;;;;;;;;5092467;28;20024;-90
2021/11/03 02:51:42;;;;;;;0.50;0.50;;;11.70;76.90;;;;;;5092157;28;20047;-89
2021/11/03 02:54:13;;;;;;;1.05;0.43;;;;;;;;;;5091575;28;20481;-89
2021/11/03 02:56:43;;;;;;;0.40;0.40;;;11.80;76.80;;;;;;5087463;28;20481;-89
2021/11/03 02:59:09;;;;;;;0.30;0.30;;;;;;;;;;5079901;28;20028;-90
2021/11/03 03:01:35;;;;;;;0.33;0.33;;;;;;;;;;5075481;28;20028;-88
2021/11/03 03:04:02;;;;;;;0.30;0.30;;;;;;;;;;5092401;28;20055;-88
2021/11/03 03:06:30;;;;;;;0.30;0.30;;;;;;;;;;5086258;28;20039;-90
2021/11/03 03:08:57;;;;;;;0.52;0.50;;;;;;;;;;5091096;28;20032;-89
2021/11/03 03:11:25;;;;;;;0.50;0.45;;;;;;;;;;5091473;28;20055;-90
2021/11/03 03:13:51;;;;;;;0.40;0.40;;;;;;;;;;5091722;28;20054;-89
2021/11/03 03:16:18;;;;;;;0.85;0.77;;;11.80;75.90;;;;;;5075336;28;20067;-89
2021/11/03 03:18:44;;;;;;;0.50;0.50;;;;;;;;;;5078838;28;20103;-90
2021/11/03 03:21:11;;;;;;;0.70;0.60;;;;;;;;;;5088592;28;20020;-89
2021/11/03 03:23:37;;;;;;;0.30;0.30;;;;;;;;;;5087307;28;20116;-89
2021/11/03 03:26:04;;;;;;;0.38;0.38;;;;;;;;;;5061034;28;20124;-88
2021/11/03 03:28:30;;;;;;;0.75;0.40;;;;;;;;;;5091129;28;20077;-89
2021/11/03 03:30:56;;;;;;;0.30;0.30;;;;;;;;;;5092928;28;20032;-89
2021/11/03 03:33:22;;;;;;;0.55;0.45;;;;;;;;;;5086390;28;20070;-90
2021/11/03 03:35:48;;;;;;;0.40;0.40;;;;;;;;;;5091176;28;20028;-89
2021/11/03 03:38:14;;;;;;;0.30;0.30;;;;;;;;;;5090893;28;20024;-92
2021/11/03 03:40:40;;;;;;;0.40;0.40;;;;;;;;;;5090270;28;20520;-89
2021/11/03 03:43:06;;;;;;;2.55;0.35;;;11.70;68.80;;;;;;5091376;28;20035;-90
2021/11/03 03:45:33;;;;;;;0.30;0.30;;;;;;;;;;5053629;28;20036;-90
2021/11/03 03:47:59;;;;;;;0.30;0.30;;;;;;;;;;5086465;28;20031;-90
2021/11/03 03:50:25;;;;;;;0.30;0.30;;;;;;;;;;5091595;28;20024;-90
2021/11/03 03:52:51;;;;;;;0.40;0.40;;;;;;;;;;5087605;28;20032;-90
2021/11/03 03:55:17;;;;;;;0.40;0.40;;;;;;;;;;5091675;28;20506;-89
2021/11/03 03:57:42;;;;;;;0.38;0.38;;;11.30;82.60;;;;;;5092272;28;20028;-91
2021/11/03 04:00:11;;;;;;;0.30;0.30;;;;;;;;;;5090849;28;20023;-90
2021/11/03 04:02:37;;;;;;;0.30;0.30;;;;;;;;;;5091683;28;20039;-90
2021/11/03 04:05:03;;;;;;;0.40;0.40;;;;;;;;;;5091431;28;20507;-91
2021/11/03 04:07:29;;;;;;;0.40;0.40;;;;;;;;;;5091124;28;20034;-89
2021/11/03 04:09:55;;;;;;;0.30;0.30;;;;;;;;;;5073998;28;20024;-90
2021/11/03 04:12:21;;;;;;;0.30;0.30;;;;;;;;;;5091086;28;20028;-91
2021/11/03 04:14:47;;;;;;;0.38;0.38;;;;;;;;;;5091245;28;20115;-90
2021/11/03 04:17:13;;;;;;;0.40;0.40;;;;;;;;;;5087528;28;20032;-90
2021/11/03 04:19:39;;;;;;;0.30;0.30;;;;;;;;;;5090494;28;20501;-91
2021/11/03 04:22:05;;;;;;;0.30;0.30;;;;;;;;;;5071375;28;20025;-90
2021/11/03 04:24:31;;;;;;;0.57;0.40;;;;;;;;;;5090096;28;20055;-90
2021/11/03 04:26:57;;;;;;;0.40;0.40;;;;;;;;;;5091278;28;20056;-89
2021/11/03 04:29:23;;;;;;;0.40;0.40;;;;;;;;;;5087019;28;20032;-89
2021/11/03 04:31:49;;;;;;;0.30;0.30;;;;;;;;;;5089206;28;20093;-89
2021/11/03 04:34:15;;;;;;;0.30;0.30;;;;;;;;;;5090681;28;20073;-89
2021/11/03 04:36:41;;;;;;;0.30;0.30;;;;;;;;;;5090983;28;20660;-91
2021/11/03 04:39:09;;;;;;;0.43;0.43;;;;;;;;;;5086642;28;20043;-90
2021/11/03 04:41:35;;;;;;;0.30;0.30;;;;;;;;;;5090492;28;20021;-90
2021/11/03 04:44:01;;;;;;;0.30;0.30;;;;;;;;;;5090953;28;20032;-90
2021/11/03 04:46:27;;;;;;;5.97;0.50;;;;;;;;;;5090999;28;20028;-90
2021/11/03 04:48:53;;;;;;;0.30;0.30;;;;;;;;;;5091054;28;20481;-90
2021/11/03 04:51:20;;;;;;;1.50;0.55;;;;;;;;;;5072130;28;20072;-90
2021/11/03 04:53:46;;;;;;;0.40;0.40;;;;;;;;;;5091346;28;20039;-90
2021/11/03 04:56:13;;;;;;;0.38;0.38;;;;;;;;;;5094510;28;20024;-88
2021/11/03 04:58:39;;;;;;;0.35;0.35;;;;;;;;;;5078375;28;20028;-89
2021/11/03 05:01:05;;;;;;;0.30;0.30;;;;;;;;;;5075136;28;20033;-88
2021/11/03 05:03:31;;;;;;;0.30;0.30;;;;;;;;;;5093938;28;20127;-90
2021/11/03 05:05:58;;;;;;;0.30;0.30;;;;;;;;;;5076716;28;20032;-89
2021/11/03 05:08:25;;;;;;;0.30;0.30;;;;;;;;;;5094596;28;20107;-91
2021/11/03 05:10:51;;;;;;;0.43;0.40;;;;;;;;;;5094858;28;20444;-90
2021/11/03 05:13:17;;;;;;;0.40;0.40;;;;;;;;;;5094196;28;20119;-89
2021/11/03 05:15:43;;;;;;;0.40;0.40;;;;;;;;;;5094986;28;20030;-89
2021/11/03 05:18:09;;;;;;;0.30;0.30;;;;;;;;;;5094370;28;20031;-89
2021/11/03 05:20:35;;;;;;;0.40;0.40;;;;;;;;;;5090248;28;20020;-90
2021/11/03 05:23:02;;;;;;;0.40;0.40;;;;;;;;;;5094523;28;20031;-90
2021/11/03 05:25:28;;;;;;;0.40;0.40;;;;;;;;;;5094478;28;20085;-91
2021/11/03 05:27:55;;;;;;;0.43;0.40;;;10.40;72.60;;;;;;5095001;28;20024;-89
2021/11/03 05:30:22;;;;;;;0.30;0.30;;;10.40;72.50;;;;;;5094205;28;20081;-89
2021/11/03 05:32:48;;;;;;;0.40;0.40;;;;;;;;;;5089922;28;20028;-90
2021/11/03 05:35:14;;;;;;;0.30;0.30;;;;;;;;;;5091883;28;20031;-91
2021/11/03 05:37:40;;;;;;;0.40;0.40;;;;;;;;;;5094065;28;20123;-88
2021/11/03 05:40:10;;;;;;;0.30;0.30;;;10.50;71.80;;;;;;5096295;28;20036;-90
2021/11/03 05:42:36;;;;;;;1.27;0.55;;;;;;;;;;5076144;28;20028;-89
2021/11/03 05:45:04;;;;;;;0.40;0.40;;;10.50;70.60;;;;;;5093985;28;20439;-91
2021/11/03 05:47:30;;;;;;;1.75;0.40;;;10.40;71.50;;;;;;5093521;28;20032;-90
2021/11/03 05:49:57;;;;;;;0.30;0.30;;;;;;;;;;5092876;28;20105;-88
2021/11/03 05:52:24;;;;;;;0.30;0.30;;;;;;;;;;5093861;28;20060;-90
2021/11/03 05:54:50;;;;;;;0.40;0.40;;;;;;;;;;5086973;28;20077;-88
2021/11/03 05:57:31;;;;;;;0.40;0.40;;;11.00;68.80;;;;;;5085136;28;20025;-89
2021/11/03 05:59:58;;;;;;;0.40;0.40;;;;;;;;;;5088567;28;20698;-89
2021/11/03 06:02:24;;;;;;;1.95;0.40;;;;;;;;;;5092936;28;20099;-90
2021/11/03 06:04:50;;;;;;;0.40;0.40;;;;;;;;;;5092293;28;20488;-90
2021/11/03 06:07:17;;;;;;;0.40;0.40;;;11.20;67.90;;;;;;5092244;28;20063;-90
2021/11/03 06:09:43;;;;;;;0.30;0.30;;;;;;;;;;5094092;28;20032;-89
2021/11/03 06:12:10;;;;;;;0.40;0.40;;;11.20;70.60;;;;;;5093083;28;20024;-90
2021/11/03 06:14:36;;;;;;;0.30;0.30;;;;;;;;;;5090018;28;20048;-87
2021/11/03 06:17:02;;;;;;;0.30;0.30;;;;;;;;;;5079826;28;20569;-90
2021/11/03 06:19:28;;;;;;;0.47;0.45;;;;;;;;;;5092390;28;20035;-91
2021/11/03 06:21:54;;;;;;;0.30;0.30;;;;;;;;;;5093405;28;20024;-90
2021/11/03 06:24:23;;;;;;;0.70;0.43;;;11.10;68.50;;;;;;5091638;28;20036;-91
2021/11/03 06:26:49;;;;;;;0.40;0.40;;;;;;;;;;5092180;28;20559;-88
2021/11/03 06:29:15;;;;;;;0.40;0.40;;;;;;;;;;5091338;28;20027;-88
2021/11/03 06:31:41;;;;;;;0.80;0.77;;;;;;;;;;5076347;28;20415;-89
2021/11/03 06:34:07;;;;;;;0.47;0.47;;;;;;;;;;5092765;28;20066;-89
2021/11/03 06:36:36;;;;;;;4.95;0.80;;;11.40;68.00;;;;;;5088373;28;20064;-89
2021/11/03 06:39:04;;;;;;;5.90;1.20;;;11.30;69.20;;;;;;5090962;28;20035;-89
2021/11/03 06:41:31;;;;;;;2.35;1.20;;;;;;;;;;5091591;28;20187;-88
2021/11/03 06:43:57;;;;;;;1.27;1.15;;;;;;;;;;5090668;28;20131;-89
2021/11/03 06:46:23;;;;;;;2.15;0.80;;;;;;;;;;5082839;28;20517;-89
2021/11/03 06:48:49;;;;;;;2.35;1.45;;;;;;;;;;5079317;28;20023;-90
2021/11/03 06:51:15;;;;;;;0.80;0.80;;;;;;;;;;5089018;28;20036;-90
2021/11/03 06:53:41;;;;;;;0.80;0.75;;;;;;;;;;5089112;28;20020;-88
2021/11/03 06:56:07;;;;;;;0.65;0.60;;;;;;;;;;5089828;28;20123;-88
2021/11/03 06:58:33;;;;;;;0.88;0.70;;;;;;;;;;5089763;28;20085;-88
2021/11/03 07:01:00;;;;;;;0.30;0.30;;;11.90;65.90;;;;;;5090302;28;20111;-89
2021/11/03 07:03:27;;;;;;;0.50;0.50;;;11.90;65.40;;;;;;5089633;28;20474;-89
2021/11/03 07:05:55;;;;;;;0.30;0.30;;;11.90;65.70;;;;;;5082951;28;20119;-89
2021/11/03 07:08:22;;;;;;;0.60;0.50;;;11.90;65.80;;;;;;5061387;28;20034;-88
2021/11/03 07:10:51;;;;;;;0.50;0.50;;;11.80;65.70;;;;;;5071225;28;20048;-89
2021/11/03 07:13:19;;;;;;;0.30;0.30;;;11.90;66.10;;;;;;5080025;28;20043;-89
2021/11/03 07:15:45;;;;;;;1.38;0.50;;;11.90;65.80;;;;;;5076736;28;20025;-90
2021/11/03 07:18:11;;;;;;;0.30;0.30;;;;;;;;;;5075025;27;20452;-90
2021/11/03 07:20:41;;;;;;;1.10;0.80;;;11.90;65.10;;;;;;5066773;28;20031;-93
2021/11/03 07:23:07;;;;;;;1.20;0.50;;;;;;;;;;5070059;28;20433;-93
2021/11/03 07:25:33;;;;;;;0.77;0.57;;;;;;;;;;5074978;28;20062;-94
2021/11/03 07:27:59;;;;;;;0.47;0.47;;;;;;;;;;5086684;28;20035;-93
2021/11/03 07:30:29;;;;;;;0.75;0.50;;;11.90;69.40;;;;;;5074296;28;20530;-93
2021/11/03 07:32:55;;;;;;;0.70;0.70;;;;;;;;;;5066038;28;20095;-93
2021/11/03 07:35:21;;;;;;;1.13;1.05;;;11.90;89.80;;;;;;5084819;28;20051;-92
2021/11/03 07:37:47;;;;;;;1.58;0.63;;;;;;;;;;5092891;28;20032;-93
2021/11/03 07:40:20;;;;;;;0.73;0.60;;;11.80;72.30;;;;;;5091446;28;20070;-93
2021/11/03 07:42:46;;;;;;;0.50;0.50;;;;;;;;;;5091644;28;20500;-92
2021/11/03 07:45:13;;;;;;;0.47;0.47;;;;;;;;;;5092562;28;20110;-93
2021/11/03 07:47:39;;;;;;;0.60;0.60;;;;;;;;;;5089688;28;20050;-93
2021/11/03 07:50:07;;;;;;;1.33;0.60;;;12.50;90.50;;;;;;5077651;28;20039;-93
2021/11/03 07:52:33;;;;;;;2.10;0.60;;;;;;;;;;5057441;28;20400;-90
2021/11/03 07:54:59;;;;;;;0.75;0.55;;;;;;;;;;5090986;28;20418;-87
2021/11/03 07:57:25;;;;;;;0.80;0.45;;;;;;;;;;5070468;28;20059;-89
2021/11/03 07:59:51;;;;;;;1.15;1.05;;;;;;;;;;5087896;28;20020;-91
2021/11/03 08:02:17;;;;;;;0.60;0.50;;;;;;;;;;5087770;28;20039;-89
2021/11/03 08:04:43;;;;;;;0.30;0.30;;;;;;;;;;5067192;28;20454;-90
2021/11/03 08:07:10;;;;;;;3.42;1.10;;;;;;;;;;5086422;28;20039;-90
2021/11/03 08:09:43;;;;;;;3.83;1.17;;;;;;;;;;5089028;28;20024;-90
2021/11/03 08:12:10;;;;;;;0.57;0.40;;;;;;;;;;5085348;28;20106;-91
2021/11/03 08:14:36;;;;;;;0.38;0.38;;;;;;;;;;5082496;28;20020;-89
2021/11/03 08:17:02;;;;;;;0.75;0.57;;;;;;;;;;5082924;28;20024;-90
2021/11/03 08:19:34;;;;;;;0.55;0.55;;;15.80;72.80;;;;;;5076805;28;20423;-90
2021/11/03 08:22:00;;;;;;;1.98;0.77;;;;;;;;;;5090638;28;20024;-94
2021/11/03 08:24:26;;;;;;;0.95;0.85;;;;;;;;;;5091463;28;20036;-92
2021/11/03 08:26:53;;;;;;;1.38;0.65;;;;;;;;;;5090288;28;20040;-91
2021/11/03 08:29:20;;;;;;;0.30;0.30;;;15.90;55.00;;;;;;5090965;28;20023;-92
2021/11/03 08:31:46;;;;;;;0.50;0.50;;;;;;;;;;5090927;28;20124;-91
2021/11/03 08:34:12;;;;;;;0.40;0.40;;;;;;;;;;5090611;28;20073;-92
2021/11/03 08:36:38;;;;;;;4.22;0.60;;;;;;;;;;5087203;28;20073;-91
2021/11/03 08:39:05;;;;;;;0.30;0.30;;;17.90;48.80;;;;;;5100772;28;20589;-90
2021/11/03 08:41:31;;;;;;;1.48;0.75;;;;;;;;;;5089785;28;20411;-90
2021/11/03 08:43:58;;;;;;;0.60;0.45;;;18.00;47.50;;;;;;5089334;28;20036;-94
2021/11/03 08:46:24;;;;;;;1.70;0.32;;;;;;;;;;5085358;28;20032;-89
2021/11/03 08:48:56;;;;;;;0.85;0.38;;;18.20;45.80;;;;;;5087896;28;20081;-90
2021/11/03 08:51:22;;;;;;;0.30;0.30;;;;;;;;;;5086604;28;20092;-89
2021/11/03 08:53:48;;;;;;;1.23;0.60;;;;;;;;;;5076071;28;20685;-89
2021/11/03 08:56:15;;;;;;;2.72;0.60;;;18.00;44.10;;;;;;5076760;28;20036;-89
2021/11/03 08:58:41;;;;;;;0.55;0.40;;;;;;;;;;5089647;28;20048;-88
2021/11/03 09:01:07;;;;;;;1.90;0.30;;;;;;;;;;5084101;28;20033;-94
2021/11/03 09:03:35;;;;;;;0.30;0.30;;;;;;;;;;5073174;28;20047;-92
2021/11/03 09:06:02;;;;;;;0.40;0.40;;;;;;;;;;5086170;28;20040;-91
2021/11/03 09:08:28;;;;;;;0.30;0.30;;;;;;;;;;5068540;28;20028;-90
2021/11/03 09:10:59;;;;;;;0.50;0.50;;;19.70;41.60;;;;;;5085551;28;20102;-87
2021/11/03 09:13:27;;;;;;;0.30;0.30;;;20.00;41.10;;;;;;5086948;28;20021;-87
2021/11/03 09:15:53;;;;;;;0.38;0.38;;;20.20;58.80;;;;;;5086133;28;20173;-88
2021/11/03 09:18:20;;;;;;;1.23;0.45;;;;;;;;;;5084797;28;20059;-88
2021/11/03 09:20:48;;;;;;;1.08;0.30;;;18.90;39.50;;;;;;5090494;28;20024;-90
2021/11/03 09:23:15;;;;;;;1.80;0.35;;;18.80;40.90;;;;;;5089208;28;20431;-89
2021/11/03 09:25:41;;;;;;;0.47;0.40;;;;;;;;;;5087753;28;20020;-90
2021/11/03 09:28:07;;;;;;;0.30;0.30;;;;;;;;;;5070609;28;20047;-89
2021/11/03 09:30:33;;;;;;;0.30;0.30;;;19.10;40.80;;;;;;5086029;28;20028;-88
2021/11/03 09:33:02;;;;;;;0.20;0.20;;;19.10;42.20;;;;;;5089301;28;20028;-89
2021/11/03 09:35:31;;;;;;;0.30;0.30;;;19.50;40.90;;;;;;5050466;28;20032;-85
2021/11/03 09:37:57;;;;;;;0.20;0.20;;;;;;;;;;5085884;28;20555;-86
2021/11/03 09:40:28;;;;;;;0.30;0.30;;;19.90;39.60;;;;;;5083776;28;20028;-86
2021/11/03 09:42:55;;;;;;;0.30;0.30;;;;;;;;;;5089783;28;20511;-87
2021/11/03 09:45:31;;;;;;;0.23;0.23;;;20.20;38.70;;;;;;5089133;28;20042;-87
2021/11/03 09:48:15;;;;;;;0.20;0.20;;;20.20;38.40;;;;;;5091170;28;20294;-90
2021/11/03 09:50:44;;;;;;;0.35;0.35;;;19.90;39.00;;;;;;5088192;28;20120;-90
2021/11/03 09:53:43;;;;;;;0.35;0.35;;;19.50;39.90;;;;;;5069734;28;20485;-89
2021/11/03 09:56:15;;;;;;;0.82;0.57;;;19.00;41.10;;;;;;5078522;28;20027;-91
2021/11/03 09:59:01;;;;;;;1.40;0.68;;;18.50;42.70;;;;;;5087640;28;20038;-92
2021/11/03 10:02:04;;;;;;;0.40;0.40;;;18.50;44.20;;;;;;5082299;28;20115;-92
2021/11/03 10:04:30;;;;;;;0.30;0.30;;;;;;;;;;5068575;28;20539;-90
2021/11/03 10:07:08;;;;;;;0.40;0.30;;;18.60;44.30;;;;;;5087600;28;20040;-91
2021/11/03 10:09:37;;;;;;;0.20;0.20;;;18.10;44.50;;;;;;5093668;28;20016;-92
2021/11/03 10:12:14;;;;;;;1.45;0.63;;;17.60;46.80;;;;;;5090502;28;20032;-92
2021/11/03 10:14:40;;;;;;;0.73;0.30;;;;;;;;;;5082192;28;20029;-92
2021/11/03 10:17:20;;;;;;;0.30;0.30;;;16.80;69.80;;;;;;5074012;28;20278;-91
2021/11/03 10:19:46;;;;;;;0.20;0.20;;;;;;;;;;5074336;28;20044;-93
2021/11/03 10:22:38;;;;;;;0.30;0.30;;;16.50;50.20;;;;;;5094322;28;20377;-92
2021/11/03 10:25:25;;;;;;;0.55;0.30;;;17.30;71.50;;;;;;5090870;28;20504;-88
2021/11/03 10:27:56;;;;;;;3.53;0.32;;;17.40;49.50;;;;;;5089410;28;20036;-89
2021/11/03 10:30:47;;;;;;;0.65;0.45;;;17.60;48.90;;;;;;5086122;28;20028;-90
2021/11/03 10:33:22;;;;;;;0.30;0.30;;;17.80;47.60;;;;;;5086870;28;20081;-90
2021/11/03 10:36:12;;;;;;;0.50;0.50;;;17.90;47.80;;;;;;5089028;28;20103;-91
2021/11/03 10:38:54;;;;;;;0.45;0.40;;;18.10;65.50;;;;;;5068412;28;20062;-86
2021/11/03 10:41:33;;;;;;;0.57;0.40;;;17.80;50.80;;;;;;5086124;28;20024;-87
2021/11/03 10:44:02;;;;;;;0.30;0.30;;;;;;;;;;5086628;28;20056;-86
2021/11/03 10:46:38;;;;;;;1.25;0.40;;;;;;;;;;5088099;28;20036;-86
2021/11/03 10:49:05;;;;;;;0.30;0.30;;;;;;;;;;5089382;28;20056;-86
2021/11/03 10:51:35;;;;;;;0.30;0.30;;;17.70;43.10;;;;;;5085073;28;20032;-86
2021/11/03 10:54:10;;;;;;;0.43;0.43;;;;;;;;;;5085622;28;20063;-85
2021/11/03 10:56:51;;;;;;;0.40;0.40;;;17.90;43.90;;;;;;5087009;28;20062;-87
2021/11/03 10:59:17;;;;;;;0.30;0.30;;;;;;;;;;5084152;28;20028;-90
2021/11/03 11:01:46;;;;;;;0.20;0.20;;;17.50;43.30;;;;;;5074051;28;20464;-90
2021/11/03 11:04:32;;;;;;;0.40;0.40;;;17.40;42.50;;;;;;5091330;28;20043;-87
2021/11/03 11:07:20;;;;;;;0.30;0.30;;;17.20;41.80;;;;;;5073382;28;20036;-85
2021/11/03 11:09:57;;;;;;;0.30;0.30;;;17.10;42.40;;;;;;5089372;28;20040;-87
2021/11/03 11:12:26;;;;;;;1.52;0.50;;;16.50;55.80;;;;;;5070074;28;20050;-89
2021/11/03 11:15:19;;;;;;;0.30;0.30;;;17.30;42.40;;;;;;5069684;28;20800;-88
2021/11/03 11:17:48;;;;;;;0.40;0.40;;;;;;;;;;5071814;28;20581;-89
2021/11/03 11:20:17;;;;;;;0.30;0.30;;;;;;;;;;5083771;28;20107;-89
2021/11/03 11:23:04;;;;;;;0.30;0.30;;;18.20;49.70;;;;;;5080382;28;20027;-88
2021/11/03 11:25:36;;;;;;;0.55;0.40;;;;;;;;;;5085991;28;20035;-88
2021/11/03 11:28:18;;;;;;;0.40;0.30;;;18.70;43.10;;;;;;5069890;28;20287;-89
2021/11/03 11:31:33;;;;;;;0.20;0.20;;;18.90;42.30;;;;;;5084043;28;20036;-87
2021/11/03 11:34:08;;;;;;;0.20;0.20;;;18.90;41.00;;;;;;5073887;28;20035;-87
2021/11/03 11:36:46;;;;;;;0.32;0.32;;;18.70;40.20;;;;;;5081542;28;20055;-88
2021/11/03 11:39:15;;;;;;;0.57;0.40;;;;;;;;;;5086946;28;20028;-88
2021/11/03 11:41:41;;;;;;;0.30;0.30;;;;;;;;;;5086790;28;20046;-88
2021/11/03 11:44:23;;;;;;;0.77;0.52;;;18.30;42.60;;;;;;5084752;28;20040;-88
2021/11/03 11:46:49;;;;;;;0.43;0.43;;;;;;;;;;5071268;28;20197;-88
2021/11/03 11:49:21;;;;;;;0.20;0.20;;;17.30;44.50;;;;;;5089162;28;20099;-89
2021/11/03 11:51:50;;;;;;;0.60;0.47;;;17.40;44.30;;;;;;5088308;28;20119;-90
2021/11/03 11:54:19;;;;;;;0.75;0.50;;;;;;;;;;5067459;28;20024;-88
2021/11/03 11:57:10;;;;;;;0.45;0.45;;;16.90;42.60;;;;;;5095030;28;20081;-88
2021/11/03 11:59:54;;;;;;;0.40;0.40;;;16.70;44.50;;;;;;5086645;28;20023;-90
2021/11/03 12:02:22;;;;;;;2.08;0.80;;;16.50;47.20;;;;;;5081450;28;20102;-89
2021/11/03 12:04:47;;;;;;;;;;;16.30;45.40;;;;;;5069032;28;20048;-90
2021/11/03 12:07:19;;;;;;;9.55;3.40;;;16.50;46.20;;;;;;5086107;28;19912;-90
2021/11/03 12:10:15;;;;;;;1.35;1.20;;;15.70;46.70;;;;;;5082980;28;20020;-89
2021/11/03 12:13:20;;;;;;;1.50;1.40;;;15.50;68.80;;;;;;5088592;28;20020;-91
2021/11/03 12:15:51;;;;;;;0.95;0.80;;;;;;;;;;5026546;28;20037;-89
2021/11/03 12:18:40;;;;;;;1.25;1.15;;;;;;;;;;5010070;28;20060;-89
2021/11/03 12:21:23;;;;;;;0.77;0.77;;;16.30;69.50;;;;;;5011990;28;20040;-87
2021/11/03 12:23:50;;;;;;;0.30;0.30;;;;;;;;;;5025117;28;20115;-89
2021/11/03 12:26:27;;;;;;;1.23;0.50;;;15.70;55.40;;;;;;5025486;28;20050;-89
2021/11/03 12:28:54;;;;;;;0.43;0.43;;;;;;;;;;5022392;28;20535;-90
2021/11/03 12:31:20;;;;;;;1.48;1.08;;;;;;;;;;5008576;28;20534;-89
2021/11/03 12:34:03;;;;;;;2.08;1.52;;;15.30;49.10;;;;;;5026992;28;20049;-89
2021/11/03 12:36:46;;;;;;;2.30;1.55;;;15.30;49.50;;;;;;5025477;28;20075;-89
2021/11/03 12:39:12;;;;;;;3.17;2.30;;;;;;;;;;5025758;28;20045;-90
2021/11/03 12:41:47;;;;;;;2.60;1.98;;;15.20;48.50;;;;;;5023133;28;20037;-90
2021/11/03 12:44:14;;;;;;;1.05;1.00;;;;;;;;;;5026719;28;20084;-90
2021/11/03 12:46:40;;;;;;;;;;;15.00;49.40;;;;;;5026538;28;20053;-90
2021/11/03 12:49:12;;;;;;;1.85;1.70;;;15.10;48.70;;;;;;5009978;28;19916;-88
2021/11/03 12:51:47;;;;;;;1.65;1.38;;;15.20;48.80;;;;;;5025849;28;20455;-89
2021/11/03 12:54:20;;;;;;;0.82;0.80;;;15.10;48.10;;;;;;5089887;28;20053;-92
2021/11/03 12:57:01;;;;;;;3.85;2.88;;;15.10;69.00;;;;;;5080622;28;20036;-91
2021/11/03 12:59:38;;;;;;;1.40;1.15;;;15.00;70.20;;;;;;5081686;28;20039;-92
2021/11/03 13:02:16;;;;;;;1.03;0.93;;;15.20;51.30;;;;;;5088143;28;20016;-86
2021/11/03 13:04:45;;;;;;;0.80;0.60;;;15.50;49.20;;;;;;5069630;28;20318;-88
2021/11/03 13:07:19;;;;;;;0.40;0.40;;;15.60;48.20;;;;;;5084230;28;20111;-88
2021/11/03 13:09:45;;;;;;;0.50;0.50;;;;;;;;;;5089594;28;20032;-91
2021/11/03 13:12:31;;;;;;;0.38;0.38;;;15.60;69.30;;;;;;5065856;28;20797;-89
2021/11/03 13:15:01;;;;;;;0.50;0.50;;;15.40;49.10;;;;;;5090477;28;20051;-88
2021/11/03 13:17:33;;;;;;;0.30;0.30;;;19.50;51.90;;;;;;5093851;28;20030;-89
2021/11/03 13:20:00;;;;;;;0.40;0.40;;;15.20;48.50;;;;;;5086963;28;20033;-89
2021/11/03 13:22:31;;;;;;;0.60;0.60;;;15.20;49.50;;;;;;5075119;28;20027;-92
2021/11/03 13:24:57;;;;;;;0.60;0.60;;;15.00;50.50;;;;;;5077659;28;20035;-91
2021/11/03 13:27:28;;;;;;;0.98;0.80;;;15.00;49.70;;;;;;5084518;28;20047;-90
2021/11/03 13:29:57;;;;;;;1.13;1.02;;;;;;;;;;5084466;28;20027;-89
2021/11/03 13:32:26;;;;;;;0.60;0.60;;;14.90;49.80;;;;;;5086530;28;20481;-91
2021/11/03 13:35:07;;;;;;;1.15;0.88;;;;;;;;;;5089309;28;20025;-92
2021/11/03 13:37:40;;;;;;;1.20;0.70;;;14.80;50.60;;;;;;5091070;28;20044;-92
2021/11/03 13:40:09;;;;;;;0.40;0.40;;;14.80;50.80;;;;;;5079866;28;20031;-80
2021/11/03 13:42:47;;;;;;;0.30;0.30;;;14.70;50.50;;;;;;5088562;28;20063;-91
2021/11/03 13:45:36;;;;;;;0.40;0.40;;;14.80;62.30;;;;;;5091581;28;20035;-90
2021/11/03 13:48:01;;;;;;;1.75;1.55;;;;;;;;;;5073131;28;20500;-90
2021/11/03 13:50:34;;;;;;;1.75;0.73;;;14.90;51.70;;;;;;5090607;28;20035;-90
2021/11/03 13:53:08;;;;;;;1.63;0.55;;;14.90;50.60;;;;;;5086277;28;20152;-88
2021/11/03 13:55:40;;;;;;;0.80;0.65;;;14.80;51.40;;;;;;5069833;28;20032;-90
2021/11/03 13:58:32;;;;;;;0.52;0.52;;;14.90;52.00;;;;;;5089122;28;20521;-93
2021/11/03 14:01:00;;;;;;;2.42;0.40;;;14.90;51.20;;;;;;5069839;28;20056;-91
2021/11/03 14:03:47;;;;;;;0.70;0.70;;;15.20;51.10;;;;;;5086954;28;20059;-89
2021/11/03 14:06:13;;;;;;;1.15;1.02;;;;;;;;;;5088281;28;20119;-88
2021/11/03 14:08:40;;;;;;;0.63;0.63;;;;;;;;;;5092374;28;20115;-89